createdAt,value
2022-12-09T00:01:04.579Z,11.57
2022-12-09T00:03:31.470Z,12.85
2022-12-09T00:05:58.166Z,11.68
2022-12-09T00:08:24.803Z,14.23
2022-12-09T00:10:51.376Z,12.02
2022-12-09T00:13:19.825Z,11.38
2022-12-09T00:15:46.366Z,12.02
2022-12-09T00:18:12.909Z,11.77
2022-12-09T00:20:39.565Z,13.65
2022-12-09T00:23:06.209Z,15.80
2022-12-09T00:25:32.775Z,15.55
2022-12-09T00:27:59.406Z,14.82
2022-12-09T00:30:27.560Z,15.70
2022-12-09T00:32:54.348Z,13.55
2022-12-09T00:35:20.921Z,14.73
2022-12-09T00:37:47.507Z,17.63
2022-12-09T00:40:15.982Z,17.17
2022-12-09T00:42:42.658Z,21.77
2022-12-09T00:45:09.866Z,14.88
2022-12-09T00:47:38.115Z,12.70
2022-12-09T00:50:06.562Z,12.23
2022-12-09T00:52:34.092Z,13.52
2022-12-09T00:55:00.990Z,12.45
2022-12-09T00:57:27.813Z,16.17
2022-12-09T00:59:54.372Z,12.50
2022-12-09T01:02:21.277Z,15.10
2022-12-09T01:04:51.461Z,11.10
2022-12-09T01:07:18.312Z,15.75
2022-12-09T01:09:45.727Z,13.50
2022-12-09T01:12:12.475Z,14.43
2022-12-09T01:14:39.054Z,13.90
2022-12-09T01:17:05.767Z,13.18
2022-12-09T01:19:32.391Z,11.63
2022-12-09T01:22:00.590Z,11.93
2022-12-09T01:24:27.303Z,11.88
2022-12-09T01:26:54.128Z,14.50
2022-12-09T01:29:20.646Z,13.63
2022-12-09T01:31:49.271Z,13.30
2022-12-09T01:34:16.123Z,17.27
2022-12-09T01:36:42.968Z,11.88
2022-12-09T01:39:11.476Z,11.93
2022-12-09T01:41:38.256Z,13.57
2022-12-09T01:44:14.958Z,13.57
2022-12-09T01:46:42.719Z,13.35
2022-12-09T01:49:14.378Z,13.20
2022-12-09T01:51:43.674Z,12.20
2022-12-09T01:54:12.679Z,14.07
2022-12-09T01:56:40.886Z,12.27
2022-12-09T01:59:12.225Z,13.52
2022-12-09T02:01:41.673Z,16.50
2022-12-09T02:04:08.920Z,12.95
2022-12-09T02:06:37.435Z,11.20
2022-12-09T02:09:05.959Z,13.02
2022-12-09T02:11:56.303Z,11.13
2022-12-09T02:14:27.380Z,13.35
2022-12-09T02:17:06.149Z,12.73
2022-12-09T02:19:51.842Z,11.65
2022-12-09T02:22:26.599Z,13.48
2022-12-09T02:25:00.107Z,11.88
2022-12-09T02:27:34.604Z,16.23
2022-12-09T02:30:09.682Z,11.20
2022-12-09T02:33:08.683Z,12.20
2022-12-09T02:35:42.792Z,13.07
2022-12-09T02:38:14.019Z,12.35
2022-12-09T02:40:47.985Z,12.40
2022-12-09T02:43:17.904Z,13.05
2022-12-09T02:45:45.276Z,16.45
2022-12-09T02:48:15.134Z,13.32
2022-12-09T02:50:45.797Z,15.73
2022-12-09T02:53:14.730Z,15.30
2022-12-09T02:55:45.089Z,12.85
2022-12-09T02:58:11.823Z,12.75
2022-12-09T03:00:40.167Z,13.40
2022-12-09T03:03:13.497Z,14.30
2022-12-09T03:05:50.242Z,16.95
2022-12-09T03:08:27.074Z,13.07
2022-12-09T03:10:57.936Z,13.68
2022-12-09T03:13:37.267Z,11.77
2022-12-09T03:16:10.749Z,11.45
2022-12-09T03:18:43.504Z,13.10
2022-12-09T03:21:14.590Z,11.65
2022-12-09T03:23:43.854Z,12.80
2022-12-09T03:26:14.102Z,11.07
2022-12-09T03:28:47.081Z,15.00
2022-12-09T03:31:17.869Z,12.38
2022-12-09T03:33:48.882Z,15.85
2022-12-09T03:36:18.991Z,14.57
2022-12-09T03:38:47.885Z,14.13
2022-12-09T03:41:20.096Z,14.05
2022-12-09T03:43:50.710Z,12.50
2022-12-09T03:46:17.705Z,11.48
2022-12-09T03:48:44.709Z,12.98
2022-12-09T03:51:15.925Z,12.90
2022-12-09T03:53:48.713Z,13.52
2022-12-09T03:56:21.052Z,12.40
2022-12-09T03:58:51.202Z,11.52
2022-12-09T04:01:19.455Z,13.18
2022-12-09T04:03:49.482Z,13.05
2022-12-09T04:06:16.567Z,11.73
2022-12-09T04:08:44.925Z,12.10
2022-12-09T04:11:11.887Z,11.93
2022-12-09T04:13:38.904Z,15.60
2022-12-09T04:16:06.070Z,11.65
2022-12-09T04:18:32.950Z,13.43
2022-12-09T04:20:59.614Z,12.40
2022-12-09T04:23:26.255Z,12.85
2022-12-09T04:25:54.302Z,13.00
2022-12-09T04:28:21.930Z,14.95
2022-12-09T04:30:49.108Z,15.25
2022-12-09T04:33:16.112Z,13.10
2022-12-09T04:35:43.157Z,11.32
2022-12-09T04:38:10.159Z,14.75
2022-12-09T04:40:38.080Z,13.18
2022-12-09T04:43:06.171Z,15.65
2022-12-09T04:45:34.416Z,18.08
2022-12-09T04:48:01.467Z,14.15
2022-12-09T04:50:28.363Z,13.43
2022-12-09T04:52:55.291Z,13.27
2022-12-09T04:55:21.909Z,12.73
2022-12-09T04:57:48.674Z,13.73
2022-12-09T05:00:18.625Z,14.35
2022-12-09T05:02:45.546Z,12.43
2022-12-09T05:05:12.428Z,14.30
2022-12-09T05:07:39.592Z,12.23
2022-12-09T05:10:08.229Z,12.30
2022-12-09T05:12:35.508Z,15.32
2022-12-09T05:15:03.351Z,13.20
2022-12-09T05:17:31.358Z,15.82
2022-12-09T05:19:58.098Z,14.15
2022-12-09T05:22:25.005Z,13.45
2022-12-09T05:24:52.014Z,12.40
2022-12-09T05:27:19.031Z,12.35
2022-12-09T05:29:46.335Z,12.30
2022-12-09T05:32:13.204Z,12.98
2022-12-09T05:34:41.379Z,10.70
2022-12-09T05:37:12.338Z,14.65
2022-12-09T05:39:39.183Z,16.20
2022-12-09T05:42:05.977Z,11.52
2022-12-09T05:44:32.795Z,13.40
2022-12-09T05:46:59.587Z,12.40
2022-12-09T05:49:26.800Z,13.00
2022-12-09T05:51:54.906Z,12.13
2022-12-09T05:54:21.632Z,13.50
2022-12-09T05:56:49.067Z,13.70
2022-12-09T05:59:15.866Z,15.30
2022-12-09T06:01:42.716Z,11.82
2022-12-09T06:04:09.605Z,12.05
2022-12-09T06:06:36.984Z,12.13
2022-12-09T06:09:05.250Z,11.05
2022-12-09T06:11:32.341Z,12.32
2022-12-09T06:13:59.518Z,12.80
2022-12-09T06:16:26.448Z,14.85
2022-12-09T06:18:53.587Z,13.52
2022-12-09T06:21:20.906Z,13.43
2022-12-09T06:23:48.939Z,11.55
2022-12-09T06:26:20.398Z,11.15
2022-12-09T06:28:47.489Z,13.65
2022-12-09T06:31:14.203Z,14.52
2022-12-09T06:33:58.580Z,14.85
2022-12-09T06:36:27.343Z,12.40
2022-12-09T06:38:55.369Z,14.38
2022-12-09T06:41:23.955Z,12.15
2022-12-09T06:43:50.911Z,11.23
2022-12-09T06:46:19.715Z,10.90
2022-12-09T06:48:47.207Z,13.45
2022-12-09T06:51:14.383Z,11.60
2022-12-09T06:53:41.470Z,11.55
2022-12-09T06:56:12.644Z,12.20
2022-12-09T06:58:43.206Z,12.40
2022-12-09T07:01:12.895Z,16.40
2022-12-09T07:03:40.075Z,12.45
2022-12-09T07:06:07.866Z,13.40
2022-12-09T07:08:34.939Z,15.55
2022-12-09T07:11:02.803Z,13.82
2022-12-09T07:13:30.046Z,13.00
2022-12-09T07:15:59.038Z,14.45
2022-12-09T07:18:25.940Z,22.20
2022-12-09T07:20:53.001Z,16.63
2022-12-09T07:23:19.593Z,21.25
2022-12-09T07:25:55.763Z,17.85
2022-12-09T07:28:22.759Z,19.08
2022-12-09T07:30:49.385Z,20.38
2022-12-09T07:33:17.519Z,16.35
2022-12-09T07:35:44.803Z,14.05
2022-12-09T07:38:11.540Z,14.35
2022-12-09T07:40:38.691Z,14.13
2022-12-09T07:43:06.340Z,14.82
2022-12-09T07:45:34.229Z,13.15
2022-12-09T07:48:01.527Z,14.00
2022-12-09T07:50:30.044Z,15.90
2022-12-09T07:52:59.031Z,16.65
2022-12-09T07:55:25.703Z,11.77
2022-12-09T07:57:52.794Z,13.57
2022-12-09T08:00:20.215Z,35.35
2022-12-09T08:02:47.223Z,24.23
2022-12-09T08:05:14.692Z,17.85
2022-12-09T08:07:44.782Z,18.27
2022-12-09T08:10:12.367Z,12.40
2022-12-09T08:12:39.426Z,15.73
2022-12-09T08:15:07.009Z,15.10
2022-12-09T08:17:34.387Z,16.67
2022-12-09T08:20:01.273Z,14.13
2022-12-09T08:22:28.335Z,14.43
2022-12-09T08:24:56.565Z,15.90
2022-12-09T08:27:25.575Z,14.52
2022-12-09T08:29:52.873Z,16.15
2022-12-09T08:32:20.188Z,18.08
2022-12-09T08:34:47.332Z,15.40
2022-12-09T08:37:15.194Z,16.88
2022-12-09T08:39:44.374Z,16.90
2022-12-09T08:42:12.828Z,17.67
2022-12-09T08:44:39.425Z,17.77
2022-12-09T08:47:06.856Z,19.08
2022-12-09T08:49:35.685Z,15.43
2022-12-09T08:52:03.154Z,16.88
2022-12-09T08:54:30.153Z,21.33
2022-12-09T08:56:59.272Z,17.27
2022-12-09T08:59:27.700Z,18.90
2022-12-09T09:01:54.759Z,19.20
2022-12-09T09:04:22.251Z,19.17
2022-12-09T09:06:50.719Z,23.98
2022-12-09T09:09:18.627Z,19.65
2022-12-09T09:11:45.785Z,19.70
2022-12-09T09:14:13.552Z,19.02
2022-12-09T09:19:25.664Z,17.80
2022-12-09T09:21:53.296Z,19.80
2022-12-09T09:24:22.887Z,18.88
2022-12-09T09:26:50.993Z,19.42
2022-12-09T09:29:20.442Z,20.23
2022-12-09T09:31:52.585Z,19.27
2022-12-09T09:34:20.844Z,22.85
2022-12-09T09:36:49.301Z,17.42
2022-12-09T09:39:16.034Z,23.83
2022-12-09T09:41:48.805Z,21.98
2022-12-09T09:44:21.867Z,19.70
2022-12-09T09:46:52.010Z,22.65
2022-12-09T09:49:30.922Z,23.65
2022-12-09T09:52:00.509Z,20.15
2022-12-09T09:54:27.476Z,22.08
2022-12-09T09:56:59.384Z,21.13
2022-12-09T09:59:36.908Z,19.15
2022-12-09T10:02:19.764Z,25.73
2022-12-09T10:04:58.174Z,23.33
2022-12-09T10:07:34.425Z,19.38
2022-12-09T10:10:12.776Z,18.75
2022-12-09T10:13:03.070Z,18.85
2022-12-09T10:15:40.781Z,18.48
2022-12-09T10:18:17.782Z,21.65
2022-12-09T10:20:46.164Z,19.88
2022-12-09T10:23:15.580Z,19.77
2022-12-09T10:25:47.286Z,19.75
2022-12-09T10:28:20.884Z,19.05
2022-12-09T10:30:48.697Z,22.02
2022-12-09T10:33:27.848Z,18.45
2022-12-09T10:35:55.731Z,21.63
2022-12-09T10:38:24.262Z,21.02
2022-12-09T10:40:59.204Z,21.67
2022-12-09T10:43:28.699Z,20.92
2022-12-09T10:48:52.157Z,21.15
2022-12-09T10:51:21.690Z,20.45
2022-12-09T10:53:52.423Z,19.50
2022-12-09T10:56:22.703Z,25.08
2022-12-09T10:58:50.234Z,20.65
2022-12-09T11:01:17.443Z,17.15
2022-12-09T11:03:51.726Z,21.20
2022-12-09T11:06:24.648Z,17.98
2022-12-09T11:08:55.488Z,21.13
2022-12-09T11:11:40.367Z,19.52
2022-12-09T11:14:19.192Z,18.80
2022-12-09T11:16:47.666Z,19.52
2022-12-09T11:19:16.410Z,20.95
2022-12-09T11:21:43.746Z,20.88
2022-12-09T11:24:20.505Z,18.00
2022-12-09T11:26:47.865Z,17.77
2022-12-09T11:29:18.539Z,20.65
2022-12-09T11:31:46.272Z,30.50
2022-12-09T11:34:21.695Z,18.38
2022-12-09T11:36:51.152Z,15.82
2022-12-09T11:39:23.019Z,21.45
2022-12-09T11:44:26.133Z,18.05
2022-12-09T11:46:59.818Z,19.98
2022-12-09T11:49:29.716Z,18.42
2022-12-09T11:52:06.393Z,19.23
2022-12-09T11:54:40.149Z,16.45
2022-12-09T11:57:29.945Z,18.35
2022-12-09T12:00:01.267Z,17.25
2022-12-09T12:02:34.764Z,16.17
2022-12-09T12:05:09.129Z,17.55
2022-12-09T12:07:42.246Z,17.60
2022-12-09T12:10:21.122Z,16.23
2022-12-09T12:12:56.588Z,16.25
2022-12-09T12:15:32.053Z,16.38
2022-12-09T12:18:03.212Z,15.07
2022-12-09T12:20:42.921Z,14.45
2022-12-09T12:23:22.466Z,16.08
2022-12-09T12:25:59.381Z,15.20
2022-12-09T12:28:50.544Z,16.05
2022-12-09T12:31:40.607Z,15.95
2022-12-09T12:34:24.635Z,19.00
2022-12-09T12:37:03.158Z,15.40
2022-12-09T12:39:45.722Z,13.27
2022-12-09T12:42:24.182Z,17.92
2022-12-09T12:45:00.095Z,14.43
2022-12-09T12:47:34.034Z,16.95
2022-12-09T12:50:20.283Z,14.23
2022-12-09T12:52:57.587Z,13.52
2022-12-09T12:55:42.229Z,14.05
2022-12-09T12:58:15.274Z,14.68
2022-12-09T13:00:52.463Z,16.10
2022-12-09T13:03:24.310Z,13.73
2022-12-09T13:05:53.946Z,12.40
2022-12-09T13:08:27.929Z,19.33
2022-12-09T13:10:57.826Z,12.80
2022-12-09T13:13:29.433Z,17.38
2022-12-09T13:16:00.630Z,16.10
2022-12-09T13:18:31.680Z,16.52
2022-12-09T13:21:01.297Z,15.03
2022-12-09T13:23:46.619Z,12.73
2022-12-09T13:26:25.370Z,14.82
2022-12-09T13:28:59.581Z,13.55
2022-12-09T13:31:29.958Z,14.57
2022-12-09T13:34:07.688Z,16.23
2022-12-09T13:36:39.837Z,16.70
2022-12-09T13:39:11.634Z,12.63
2022-12-09T13:41:45.491Z,12.77
2022-12-09T13:44:16.563Z,14.52
2022-12-09T13:46:43.378Z,13.63
2022-12-09T13:49:18.043Z,14.07
2022-12-09T13:51:47.599Z,14.35
2022-12-09T13:54:17.429Z,14.13
2022-12-09T13:56:46.815Z,15.68
2022-12-09T13:59:35.862Z,12.43
2022-12-09T14:02:18.259Z,11.98
2022-12-09T14:04:53.187Z,11.90
2022-12-09T14:07:29.550Z,11.68
2022-12-09T14:09:58.536Z,13.60
2022-12-09T14:13:04.626Z,13.60
2022-12-09T14:15:37.050Z,13.93
2022-12-09T14:18:05.507Z,12.45
2022-12-09T14:20:35.580Z,14.30
2022-12-09T14:23:11.357Z,15.27
2022-12-09T14:26:11.453Z,13.85
2022-12-09T14:28:59.119Z,14.65
2022-12-09T14:32:01.827Z,12.65
2022-12-09T14:34:33.112Z,14.07
2022-12-09T14:37:50.138Z,15.23
2022-12-09T14:40:26.570Z,11.13
2022-12-09T14:43:02.352Z,11.35
2022-12-09T14:45:36.152Z,17.17
2022-12-09T14:48:10.179Z,15.05
2022-12-09T14:50:37.363Z,12.95
2022-12-09T14:53:08.584Z,13.27
2022-12-09T14:55:40.427Z,12.93
2022-12-09T14:58:18.813Z,12.52
2022-12-09T15:00:45.658Z,14.55
2022-12-09T15:03:36.775Z,15.93
2022-12-09T15:06:10.942Z,13.02
2022-12-09T15:08:39.226Z,16.25
2022-12-09T15:11:09.866Z,16.67
2022-12-09T15:13:41.703Z,12.25
2022-12-09T15:16:10.380Z,13.02
2022-12-09T15:18:40.195Z,14.18
2022-12-09T15:21:07.502Z,12.00
2022-12-09T15:23:37.886Z,13.85
2022-12-09T15:26:06.305Z,10.77
2022-12-09T15:28:35.558Z,11.85
2022-12-09T15:31:06.238Z,14.43
2022-12-09T15:33:40.878Z,12.65
2022-12-09T15:36:11.653Z,10.68
2022-12-09T15:38:42.262Z,12.55
2022-12-09T15:41:09.717Z,13.90
2022-12-09T15:43:37.778Z,12.35
2022-12-09T15:46:07.248Z,10.65
2022-12-09T15:48:36.952Z,11.82
2022-12-09T15:51:10.487Z,11.57
2022-12-09T15:53:42.028Z,10.90
2022-12-09T15:56:13.563Z,9.70
2022-12-09T15:58:42.783Z,10.95
2022-12-09T16:01:19.951Z,10.90
2022-12-09T16:03:49.673Z,10.07
2022-12-09T16:06:16.319Z,12.85
2022-12-09T16:08:44.627Z,10.80
2022-12-09T16:11:11.768Z,13.05
2022-12-09T16:14:02.004Z,15.65
2022-12-09T16:16:39.278Z,29.42
2022-12-09T16:19:05.953Z,35.15
2022-12-09T16:21:34.898Z,25.52
2022-12-09T16:24:07.005Z,23.85
2022-12-09T16:26:36.463Z,14.45
2022-12-09T16:29:05.806Z,11.90
2022-12-09T16:31:33.960Z,13.35
2022-12-09T16:34:00.522Z,10.13
2022-12-09T16:36:29.619Z,11.52
2022-12-09T16:39:42.476Z,13.55
2022-12-09T16:42:21.685Z,12.48
2022-12-09T16:44:48.871Z,13.43
2022-12-09T16:47:19.209Z,14.25
2022-12-09T16:49:48.715Z,12.23
2022-12-09T16:52:16.801Z,13.13
2022-12-09T16:54:46.446Z,17.38
2022-12-09T16:57:14.988Z,17.45
2022-12-09T16:59:42.508Z,16.40
2022-12-09T17:02:30.637Z,16.38
2022-12-09T17:04:58.286Z,18.60
2022-12-09T17:07:24.810Z,16.83
2022-12-09T17:09:52.255Z,13.02
2022-12-09T17:12:20.223Z,14.80
2022-12-09T17:14:47.074Z,13.45
2022-12-09T17:17:13.893Z,14.23
2022-12-09T17:19:42.247Z,16.05
2022-12-09T17:22:09.652Z,19.17
2022-12-09T17:24:36.455Z,17.38
2022-12-09T17:27:03.229Z,16.35
2022-12-09T17:29:29.855Z,25.10
2022-12-09T17:31:56.432Z,16.55
2022-12-09T17:34:23.279Z,15.32
2022-12-09T17:36:51.273Z,17.60
2022-12-09T17:39:17.956Z,16.73
2022-12-09T17:41:44.647Z,15.55
2022-12-09T17:44:12.373Z,14.02
2022-12-09T17:46:39.115Z,13.55
2022-12-09T17:49:05.870Z,16.08
2022-12-09T17:51:35.955Z,20.58
2022-12-09T17:54:06.208Z,15.43
2022-12-09T17:56:35.808Z,16.50
2022-12-09T17:59:05.426Z,19.30
2022-12-09T18:01:32.388Z,20.35
2022-12-09T18:04:07.951Z,18.45
2022-12-09T18:06:36.261Z,20.27
2022-12-09T18:09:06.454Z,18.52
2022-12-09T18:11:33.549Z,23.08
2022-12-09T18:14:00.556Z,21.33
2022-12-09T18:16:27.845Z,34.85
2022-12-09T18:18:54.592Z,42.30
2022-12-09T18:21:24.859Z,22.98
2022-12-09T18:23:51.485Z,26.40
2022-12-09T18:26:19.447Z,21.88
2022-12-09T18:28:46.170Z,19.73
2022-12-09T18:31:15.040Z,21.48
2022-12-09T18:33:42.246Z,16.52
2022-12-09T18:36:10.803Z,15.63
2022-12-09T18:38:37.467Z,22.25
2022-12-09T18:41:06.437Z,20.48
2022-12-09T18:43:38.043Z,29.17
2022-12-09T18:46:06.804Z,24.90
2022-12-09T18:48:33.362Z,20.55
2022-12-09T18:51:00.110Z,20.38
2022-12-09T18:53:26.698Z,20.85
2022-12-09T18:55:53.376Z,22.55
2022-12-09T18:58:36.527Z,23.50
2022-12-09T19:01:16.550Z,22.38
2022-12-09T19:03:43.306Z,21.70
2022-12-09T19:06:20.929Z,26.23
2022-12-09T19:08:49.347Z,21.25
2022-12-09T19:11:15.843Z,23.30
2022-12-09T19:13:42.417Z,20.13
2022-12-09T19:16:09.158Z,17.83
2022-12-09T19:18:37.394Z,24.98
2022-12-09T19:21:08.305Z,26.70
2022-12-09T19:23:35.131Z,26.02
2022-12-09T19:26:01.653Z,23.73
2022-12-09T19:28:28.399Z,24.67
2022-12-09T19:30:54.990Z,21.60
2022-12-09T19:33:21.779Z,21.95
2022-12-09T19:35:49.685Z,22.48
2022-12-09T19:38:16.343Z,23.17
2022-12-09T19:40:42.876Z,20.00
2022-12-09T19:43:09.705Z,18.48
2022-12-09T19:45:36.236Z,27.65
2022-12-09T19:48:02.859Z,27.20
2022-12-09T19:50:29.375Z,24.38
2022-12-09T19:52:58.307Z,22.27
2022-12-09T19:55:24.866Z,21.35
2022-12-09T19:57:51.473Z,28.58
2022-12-09T20:00:18.347Z,24.75
2022-12-09T20:02:44.969Z,27.70
2022-12-09T20:05:11.729Z,26.98
2022-12-09T20:07:38.358Z,29.33
2022-12-09T20:10:07.861Z,23.95
2022-12-09T20:12:34.894Z,21.85
2022-12-09T20:15:01.470Z,24.30
2022-12-09T20:17:28.147Z,22.17
2022-12-09T20:19:54.636Z,24.30
2022-12-09T20:22:21.454Z,25.88
2022-12-09T20:24:47.956Z,21.83
2022-12-09T20:27:15.985Z,25.08
2022-12-09T20:29:42.541Z,23.05
2022-12-09T20:32:09.757Z,29.02
2022-12-09T20:34:36.597Z,31.35
2022-12-09T20:37:03.703Z,29.13
2022-12-09T20:39:30.659Z,28.05
2022-12-09T20:41:57.247Z,29.65
2022-12-09T20:44:25.215Z,29.98
2022-12-09T20:46:53.262Z,27.90
2022-12-09T20:49:20.459Z,30.20
2022-12-09T20:51:47.262Z,29.55
2022-12-09T20:54:14.284Z,31.17
2022-12-09T20:56:41.284Z,35.53
2022-12-09T20:59:07.970Z,32.45
2022-12-09T21:01:36.873Z,30.63
2022-12-09T21:04:05.555Z,31.63
2022-12-09T21:06:34.529Z,31.48
2022-12-09T21:09:02.288Z,32.03
2022-12-09T21:11:28.976Z,29.10
2022-12-09T21:13:58.987Z,33.00
2022-12-09T21:16:27.364Z,37.22
2022-12-09T21:18:57.231Z,32.70
2022-12-09T21:21:25.453Z,30.20
2022-12-09T21:23:52.176Z,35.03
2022-12-09T21:26:19.681Z,34.22
2022-12-09T21:28:47.416Z,38.30
2022-12-09T21:31:16.173Z,33.97
2022-12-09T21:33:44.559Z,31.00
2022-12-09T21:36:15.398Z,31.52
2022-12-09T21:38:42.826Z,33.55
2022-12-09T21:41:11.338Z,36.55
2022-12-09T21:43:38.756Z,32.50
2022-12-09T21:46:08.172Z,30.90
2022-12-09T21:48:34.858Z,23.80
2022-12-09T21:51:02.581Z,27.85
2022-12-09T21:53:31.175Z,29.48
2022-12-09T21:56:01.722Z,30.77
2022-12-09T21:58:30.103Z,29.23
2022-12-09T22:00:57.163Z,29.38
2022-12-09T22:03:24.743Z,33.10
2022-12-09T22:05:56.648Z,35.80
2022-12-09T22:08:25.839Z,28.77
2022-12-09T22:10:54.958Z,29.10
2022-12-09T22:13:21.680Z,32.40
2022-12-09T22:15:48.249Z,27.20
2022-12-09T22:18:14.991Z,32.85
2022-12-09T22:21:15.883Z,28.52
2022-12-09T22:23:28.220Z,31.00
2022-12-09T22:25:56.313Z,29.88
2022-12-09T22:28:22.928Z,32.00
2022-12-09T22:30:49.598Z,31.70
2022-12-09T22:33:17.584Z,29.02
2022-12-09T22:35:44.128Z,27.55
2022-12-09T22:38:14.407Z,24.67
2022-12-09T22:40:41.727Z,24.17
2022-12-09T22:43:09.875Z,23.15
2022-12-09T22:45:36.463Z,28.15
2022-12-09T22:48:03.402Z,27.00
2022-12-09T22:50:30.001Z,26.85
2022-12-09T22:52:56.630Z,28.77
2022-12-09T22:55:23.220Z,24.67
2022-12-09T22:57:50.159Z,27.48
2022-12-09T23:00:18.272Z,30.98
2022-12-09T23:02:44.903Z,27.35
2022-12-09T23:05:11.549Z,29.23
2022-12-09T23:07:38.244Z,28.65
2022-12-09T23:10:06.252Z,27.63
2022-12-09T23:12:33.122Z,29.00
2022-12-09T23:14:59.882Z,25.10
2022-12-09T23:17:27.861Z,28.45
2022-12-09T23:19:54.385Z,27.67
2022-12-09T23:22:21.203Z,27.25
2022-12-09T23:24:48.205Z,26.50
2022-12-09T23:27:14.717Z,28.48
2022-12-09T23:29:41.385Z,28.42
2022-12-09T23:32:08.086Z,25.85
2022-12-09T23:34:36.052Z,25.73
2022-12-09T23:37:03.065Z,31.52
2022-12-09T23:39:29.972Z,31.15
2022-12-09T23:41:56.523Z,25.17
2022-12-09T23:44:23.263Z,26.63
2022-12-09T23:46:50.225Z,26.55
2022-12-09T23:49:17.159Z,26.55
2022-12-09T23:51:45.271Z,28.70
2022-12-09T23:54:12.890Z,27.00
2022-12-09T23:56:40.990Z,27.88
2022-12-09T23:59:09.729Z,24.80
